sensor_id;sensor_type;location;lat;lon;timestamp;pressure;altitude;pressure_sealevel;temperature;humidity
54554;BME280;40450;55.848;-3.572;2023-04-25T00:00:11;99668.22;;;5.77;57.60
54554;BME280;40450;55.848;-3.572;2023-04-25T00:02:40;99666.48;;;5.09;58.10
54554;BME280;40450;55.848;-3.572;2023-04-25T00:05:11;99667.58;;;5.53;57.75
54554;BME280;40450;55.848;-3.572;2023-04-25T00:07:42;99672.04;;;5.64;57.22
54554;BME280;40450;55.848;-3.572;2023-04-25T00:10:12;99673.08;;;6.33;56.51
54554;BME280;40450;55.848;-3.572;2023-04-25T00:12:42;99672.20;;;6.69;55.54
54554;BME280;40450;55.848;-3.572;2023-04-25T00:15:12;99671.95;;;6.73;55.17
54554;BME280;40450;55.848;-3.572;2023-04-25T00:17:43;99671.18;;;6.24;55.17
54554;BME280;40450;55.848;-3.572;2023-04-25T00:20:13;99668.70;;;6.35;55.43
54554;BME280;40450;55.848;-3.572;2023-04-25T00:22:44;99676.30;;;6.08;55.39
54554;BME280;40450;55.848;-3.572;2023-04-25T00:25:14;99680.19;;;5.79;55.49
54554;BME280;40450;55.848;-3.572;2023-04-25T00:27:45;99681.25;;;5.07;56.87
54554;BME280;40450;55.848;-3.572;2023-04-25T00:30:15;99681.06;;;5.39;56.70
54554;BME280;40450;55.848;-3.572;2023-04-25T00:32:46;99680.19;;;5.61;56.09
54554;BME280;40450;55.848;-3.572;2023-04-25T00:35:16;99677.24;;;5.55;56.08
54554;BME280;40450;55.848;-3.572;2023-04-25T00:37:46;99674.94;;;5.55;56.34
54554;BME280;40450;55.848;-3.572;2023-04-25T00:40:17;99672.84;;;5.19;57.01
54554;BME280;40450;55.848;-3.572;2023-04-25T00:42:48;99674.54;;;4.78;57.70
54554;BME280;40450;55.848;-3.572;2023-04-25T00:45:18;99673.97;;;3.58;60.58
54554;BME280;40450;55.848;-3.572;2023-04-25T00:47:48;99669.33;;;4.26;59.32
54554;BME280;40450;55.848;-3.572;2023-04-25T00:50:19;99667.03;;;4.44;58.95
54554;BME280;40450;55.848;-3.572;2023-04-25T00:52:49;99664.84;;;4.95;58.46
54554;BME280;40450;55.848;-3.572;2023-04-25T00:55:20;99666.37;;;5.05;57.28
54554;BME280;40450;55.848;-3.572;2023-04-25T00:57:50;99668.54;;;4.49;58.19
54554;BME280;40450;55.848;-3.572;2023-04-25T01:00:21;99668.80;;;4.13;59.09
54554;BME280;40450;55.848;-3.572;2023-04-25T01:02:52;99668.64;;;3.30;61.21
54554;BME280;40450;55.848;-3.572;2023-04-25T01:05:22;99667.89;;;2.66;62.50
54554;BME280;40450;55.848;-3.572;2023-04-25T01:07:52;99665.45;;;3.31;61.33
54554;BME280;40450;55.848;-3.572;2023-04-25T01:10:23;99667.36;;;3.16;61.69
54554;BME280;40450;55.848;-3.572;2023-04-25T01:12:53;99666.96;;;3.90;60.30
54554;BME280;40450;55.848;-3.572;2023-04-25T01:15:24;99666.87;;;4.01;59.85
54554;BME280;40450;55.848;-3.572;2023-04-25T01:17:54;99667.85;;;3.53;60.75
54554;BME280;40450;55.848;-3.572;2023-04-25T01:20:26;99670.75;;;3.00;62.08
54554;BME280;40450;55.848;-3.572;2023-04-25T01:22:55;99670.18;;;2.36;63.36
54554;BME280;40450;55.848;-3.572;2023-04-25T01:25:26;99671.59;;;1.16;65.98
54554;BME280;40450;55.848;-3.572;2023-04-25T01:27:57;99668.96;;;2.09;61.80
54554;BME280;40450;55.848;-3.572;2023-04-25T01:30:27;99662.74;;;2.78;62.85
54554;BME280;40450;55.848;-3.572;2023-04-25T01:32:58;99657.67;;;3.75;61.47
54554;BME280;40450;55.848;-3.572;2023-04-25T01:35:28;99657.52;;;3.98;60.15
54554;BME280;40450;55.848;-3.572;2023-04-25T01:37:58;99658.78;;;3.18;60.90
54554;BME280;40450;55.848;-3.572;2023-04-25T01:40:29;99658.64;;;3.58;60.77
54554;BME280;40450;55.848;-3.572;2023-04-25T01:42:59;99651.51;;;3.49;59.54
54554;BME280;40450;55.848;-3.572;2023-04-25T01:45:30;99653.17;;;2.47;61.62
54554;BME280;40450;55.848;-3.572;2023-04-25T01:48:00;99655.18;;;2.77;60.59
54554;BME280;40450;55.848;-3.572;2023-04-25T01:50:30;99657.28;;;2.89;61.25
54554;BME280;40450;55.848;-3.572;2023-04-25T01:53:01;99658.39;;;2.93;60.50
54554;BME280;40450;55.848;-3.572;2023-04-25T01:55:31;99656.61;;;2.40;61.32
54554;BME280;40450;55.848;-3.572;2023-04-25T01:58:03;99659.47;;;2.81;61.41
54554;BME280;40450;55.848;-3.572;2023-04-25T02:00:32;99661.45;;;2.42;61.97
54554;BME280;40450;55.848;-3.572;2023-04-25T02:03:03;99658.27;;;2.02;63.21
54554;BME280;40450;55.848;-3.572;2023-04-25T02:05:35;99659.84;;;1.48;64.34
54554;BME280;40450;55.848;-3.572;2023-04-25T02:08:05;99665.28;;;1.68;64.13
54554;BME280;40450;55.848;-3.572;2023-04-25T02:10:35;99661.25;;;1.71;63.89
54554;BME280;40450;55.848;-3.572;2023-04-25T02:13:05;99657.19;;;1.36;64.80
54554;BME280;40450;55.848;-3.572;2023-04-25T02:15:35;99657.34;;;2.08;63.50
54554;BME280;40450;55.848;-3.572;2023-04-25T02:18:06;99661.09;;;2.05;63.50
54554;BME280;40450;55.848;-3.572;2023-04-25T02:20:36;99663.06;;;2.02;63.19
54554;BME280;40450;55.848;-3.572;2023-04-25T02:23:07;99668.86;;;2.57;62.42
54554;BME280;40450;55.848;-3.572;2023-04-25T02:25:37;99668.70;;;2.01;62.27
54554;BME280;40450;55.848;-3.572;2023-04-25T02:28:08;99670.05;;;1.55;63.32
54554;BME280;40450;55.848;-3.572;2023-04-25T02:30:38;99671.29;;;2.58;62.18
54554;BME280;40450;55.848;-3.572;2023-04-25T02:33:09;99668.72;;;3.17;60.44
54554;BME280;40450;55.848;-3.572;2023-04-25T02:35:39;99671.00;;;3.21;61.07
54554;BME280;40450;55.848;-3.572;2023-04-25T02:38:10;99666.41;;;3.07;60.12
54554;BME280;40450;55.848;-3.572;2023-04-25T02:40:41;99670.45;;;2.55;61.42
54554;BME280;40450;55.848;-3.572;2023-04-25T02:43:11;99674.61;;;1.80;62.80
54554;BME280;40450;55.848;-3.572;2023-04-25T02:45:41;99675.30;;;2.85;62.19
54554;BME280;40450;55.848;-3.572;2023-04-25T02:48:12;99677.25;;;2.61;61.73
54554;BME280;40450;55.848;-3.572;2023-04-25T02:50:42;99674.82;;;3.16;60.80
54554;BME280;40450;55.848;-3.572;2023-04-25T02:53:13;99681.36;;;2.71;60.77
54554;BME280;40450;55.848;-3.572;2023-04-25T02:55:43;99684.39;;;2.55;60.95
54554;BME280;40450;55.848;-3.572;2023-04-25T02:58:14;99683.42;;;2.28;61.98
54554;BME280;40450;55.848;-3.572;2023-04-25T03:00:44;99682.43;;;3.16;61.69
54554;BME280;40450;55.848;-3.572;2023-04-25T03:03:15;99679.66;;;3.06;60.77
54554;BME280;40450;55.848;-3.572;2023-04-25T03:05:45;99670.16;;;3.48;59.73
54554;BME280;40450;55.848;-3.572;2023-04-25T03:08:16;99671.16;;;2.41;61.24
54554;BME280;40450;55.848;-3.572;2023-04-25T03:10:46;99672.06;;;2.99;60.94
54554;BME280;40450;55.848;-3.572;2023-04-25T03:13:17;99673.91;;;3.58;60.65
54554;BME280;40450;55.848;-3.572;2023-04-25T03:15:47;99681.23;;;3.81;59.07
54554;BME280;40450;55.848;-3.572;2023-04-25T03:18:18;99684.77;;;2.91;59.51
54554;BME280;40450;55.848;-3.572;2023-04-25T03:20:48;99687.48;;;2.27;61.24
54554;BME280;40450;55.848;-3.572;2023-04-25T03:23:19;99680.00;;;2.31;61.52
54554;BME280;40450;55.848;-3.572;2023-04-25T03:25:49;99670.98;;;2.53;61.22
54554;BME280;40450;55.848;-3.572;2023-04-25T03:28:20;99672.94;;;3.37;61.32
54554;BME280;40450;55.848;-3.572;2023-04-25T03:30:50;99676.42;;;3.51;59.42
54554;BME280;40450;55.848;-3.572;2023-04-25T03:33:21;99674.29;;;3.61;58.25
54554;BME280;40450;55.848;-3.572;2023-04-25T03:35:52;99679.03;;;3.01;59.36
54554;BME280;40450;55.848;-3.572;2023-04-25T03:38:22;99679.62;;;3.05;59.94
54554;BME280;40450;55.848;-3.572;2023-04-25T03:40:53;99678.23;;;2.11;61.48
54554;BME280;40450;55.848;-3.572;2023-04-25T03:43:22;99678.00;;;1.99;62.12
54554;BME280;40450;55.848;-3.572;2023-04-25T03:45:53;99681.20;;;2.60;61.35
54554;BME280;40450;55.848;-3.572;2023-04-25T03:48:23;99678.82;;;2.79;60.94
54554;BME280;40450;55.848;-3.572;2023-04-25T03:50:55;99675.32;;;3.68;60.96
54554;BME280;40450;55.848;-3.572;2023-04-25T03:53:34;99671.31;;;3.58;58.62
54554;BME280;40450;55.848;-3.572;2023-04-25T03:56:05;99670.55;;;3.78;58.96
54554;BME280;40450;55.848;-3.572;2023-04-25T03:58:25;99671.95;;;4.27;59.38
54554;BME280;40450;55.848;-3.572;2023-04-25T04:00:56;99667.01;;;4.64;58.59
54554;BME280;40450;55.848;-3.572;2023-04-25T04:03:26;99668.58;;;4.89;57.09
54554;BME280;40450;55.848;-3.572;2023-04-25T04:05:57;99669.57;;;4.96;56.75
54554;BME280;40450;55.848;-3.572;2023-04-25T04:08:28;99670.54;;;4.48;56.04
54554;BME280;40450;55.848;-3.572;2023-04-25T04:10:58;99670.39;;;4.36;56.66
54554;BME280;40450;55.848;-3.572;2023-04-25T04:13:38;99669.80;;;3.61;57.47
54554;BME280;40450;55.848;-3.572;2023-04-25T04:16:09;99671.93;;;3.64;57.57
54554;BME280;40450;55.848;-3.572;2023-04-25T04:18:30;99673.70;;;3.60;57.91
54554;BME280;40450;55.848;-3.572;2023-04-25T04:21:00;99671.67;;;3.20;58.36
54554;BME280;40450;55.848;-3.572;2023-04-25T04:23:30;99672.22;;;2.63;59.65
54554;BME280;40450;55.848;-3.572;2023-04-25T04:26:01;99673.34;;;2.03;60.99
54554;BME280;40450;55.848;-3.572;2023-04-25T04:28:31;99679.86;;;1.76;61.86
54554;BME280;40450;55.848;-3.572;2023-04-25T04:31:02;99680.23;;;1.57;62.60
54554;BME280;40450;55.848;-3.572;2023-04-25T04:33:32;99679.49;;;1.42;62.61
54554;BME280;40450;55.848;-3.572;2023-04-25T04:36:03;99678.75;;;2.22;62.33
54554;BME280;40450;55.848;-3.572;2023-04-25T04:38:33;99675.08;;;2.22;61.29
54554;BME280;40450;55.848;-3.572;2023-04-25T04:41:04;99676.16;;;2.21;61.26
54554;BME280;40450;55.848;-3.572;2023-04-25T04:43:34;99679.02;;;1.19;63.53
54554;BME280;40450;55.848;-3.572;2023-04-25T04:46:05;99679.55;;;0.90;64.46
54554;BME280;40450;55.848;-3.572;2023-04-25T04:48:35;99684.54;;;0.33;65.50
54554;BME280;40450;55.848;-3.572;2023-04-25T04:51:06;99681.74;;;0.84;64.99
54554;BME280;40450;55.848;-3.572;2023-04-25T04:53:36;99684.30;;;0.52;65.33
54554;BME280;40450;55.848;-3.572;2023-04-25T04:56:07;99692.74;;;0.47;65.36
54554;BME280;40450;55.848;-3.572;2023-04-25T04:58:37;99698.89;;;0.00;66.73
54554;BME280;40450;55.848;-3.572;2023-04-25T05:01:08;99702.65;;;0.02;66.89
54554;BME280;40450;55.848;-3.572;2023-04-25T05:03:38;99705.70;;;0.10;66.84
54554;BME280;40450;55.848;-3.572;2023-04-25T05:06:09;99707.43;;;0.30;66.68
54554;BME280;40450;55.848;-3.572;2023-04-25T05:08:39;99701.66;;;1.37;65.35
54554;BME280;40450;55.848;-3.572;2023-04-25T05:11:10;99701.14;;;1.63;63.45
54554;BME280;40450;55.848;-3.572;2023-04-25T05:13:40;99706.06;;;1.46;63.94
54554;BME280;40450;55.848;-3.572;2023-04-25T05:16:11;99710.42;;;1.85;63.04
54554;BME280;40450;55.848;-3.572;2023-04-25T05:18:42;99707.00;;;2.51;62.83
54554;BME280;40450;55.848;-3.572;2023-04-25T05:21:12;99706.28;;;2.69;62.39
54554;BME280;40450;55.848;-3.572;2023-04-25T05:23:43;99703.32;;;2.55;60.68
54554;BME280;40450;55.848;-3.572;2023-04-25T05:26:13;99706.50;;;2.92;60.74
54554;BME280;40450;55.848;-3.572;2023-04-25T05:28:43;99708.37;;;3.53;61.61
54554;BME280;40450;55.848;-3.572;2023-04-25T05:31:14;99707.83;;;3.56;59.34
54554;BME280;40450;55.848;-3.572;2023-04-25T05:33:44;99709.67;;;3.17;59.17
54554;BME280;40450;55.848;-3.572;2023-04-25T05:36:15;99710.50;;;3.36;60.51
54554;BME280;40450;55.848;-3.572;2023-04-25T05:38:45;99709.73;;;3.15;59.90
54554;BME280;40450;55.848;-3.572;2023-04-25T05:41:16;99713.73;;;3.08;60.61
54554;BME280;40450;55.848;-3.572;2023-04-25T05:43:46;99713.76;;;2.64;61.80
54554;BME280;40450;55.848;-3.572;2023-04-25T05:46:22;99719.14;;;2.67;62.57
54554;BME280;40450;55.848;-3.572;2023-04-25T05:48:47;99721.58;;;2.71;62.56
54554;BME280;40450;55.848;-3.572;2023-04-25T05:51:18;99720.24;;;3.14;61.69
54554;BME280;40450;55.848;-3.572;2023-04-25T05:53:48;99721.36;;;3.50;61.28
54554;BME280;40450;55.848;-3.572;2023-04-25T05:56:20;99719.71;;;4.02;61.15
54554;BME280;40450;55.848;-3.572;2023-04-25T05:58:50;99719.74;;;3.77;59.59
54554;BME280;40450;55.848;-3.572;2023-04-25T06:01:21;99724.19;;;3.25;60.66
54554;BME280;40450;55.848;-3.572;2023-04-25T06:03:51;99726.46;;;3.06;61.05
54554;BME280;40450;55.848;-3.572;2023-04-25T06:06:22;99722.00;;;3.55;61.45
54554;BME280;40450;55.848;-3.572;2023-04-25T06:08:52;99722.21;;;3.18;61.24
54554;BME280;40450;55.848;-3.572;2023-04-25T06:11:22;99724.28;;;2.27;63.54
54554;BME280;40450;55.848;-3.572;2023-04-25T06:13:53;99722.63;;;1.77;64.41
54554;BME280;40450;55.848;-3.572;2023-04-25T06:16:23;99724.02;;;1.40;66.26
54554;BME280;40450;55.848;-3.572;2023-04-25T06:18:54;99721.60;;;2.37;64.72
54554;BME280;40450;55.848;-3.572;2023-04-25T06:21:24;99720.56;;;2.44;64.64
54554;BME280;40450;55.848;-3.572;2023-04-25T06:23:55;99722.70;;;1.84;66.29
54554;BME280;40450;55.848;-3.572;2023-04-25T06:26:25;99721.33;;;2.21;65.81
54554;BME280;40450;55.848;-3.572;2023-04-25T06:28:55;99720.31;;;2.91;65.09
54554;BME280;40450;55.848;-3.572;2023-04-25T06:31:26;99717.24;;;3.24;64.33
54554;BME280;40450;55.848;-3.572;2023-04-25T06:33:56;99717.52;;;3.12;64.46
54554;BME280;40450;55.848;-3.572;2023-04-25T06:36:27;99715.41;;;2.99;65.31
54554;BME280;40450;55.848;-3.572;2023-04-25T06:38:57;99715.42;;;3.46;64.40
54554;BME280;40450;55.848;-3.572;2023-04-25T06:41:28;99721.07;;;3.17;65.67
54554;BME280;40450;55.848;-3.572;2023-04-25T06:43:58;99716.50;;;3.52;65.03
54554;BME280;40450;55.848;-3.572;2023-04-25T06:46:29;99712.79;;;4.16;64.31
54554;BME280;40450;55.848;-3.572;2023-04-25T06:48:59;99714.47;;;4.87;63.75
54554;BME280;40450;55.848;-3.572;2023-04-25T06:51:29;99721.30;;;5.56;63.08
54554;BME280;40450;55.848;-3.572;2023-04-25T06:54:00;99720.87;;;5.57;61.99
54554;BME280;40450;55.848;-3.572;2023-04-25T06:56:30;99722.41;;;5.14;60.20
54554;BME280;40450;55.848;-3.572;2023-04-25T06:59:01;99720.32;;;5.35;60.92
54554;BME280;40450;55.848;-3.572;2023-04-25T07:01:32;99722.41;;;5.50;59.88
54554;BME280;40450;55.848;-3.572;2023-04-25T07:04:02;99727.45;;;5.76;60.39
54554;BME280;40450;55.848;-3.572;2023-04-25T07:06:33;99728.76;;;5.11;60.27
54554;BME280;40450;55.848;-3.572;2023-04-25T07:09:03;99726.00;;;5.65;59.60
54554;BME280;40450;55.848;-3.572;2023-04-25T07:11:33;99721.89;;;6.28;59.58
54554;BME280;40450;55.848;-3.572;2023-04-25T07:14:04;99725.92;;;5.79;59.48
54554;BME280;40450;55.848;-3.572;2023-04-25T07:16:35;99729.06;;;6.32;59.37
54554;BME280;40450;55.848;-3.572;2023-04-25T07:19:05;99735.08;;;4.54;63.11
54554;BME280;40450;55.848;-3.572;2023-04-25T07:21:36;99738.98;;;5.09;61.15
54554;BME280;40450;55.848;-3.572;2023-04-25T07:24:07;99738.48;;;5.49;60.85
54554;BME280;40450;55.848;-3.572;2023-04-25T07:26:37;99748.39;;;1.44;67.65
54554;BME280;40450;55.848;-3.572;2023-04-25T07:29:08;99747.71;;;1.67;68.86
54554;BME280;40450;55.848;-3.572;2023-04-25T07:31:38;99744.52;;;2.99;66.64
54554;BME280;40450;55.848;-3.572;2023-04-25T07:34:09;99748.68;;;2.59;67.92
54554;BME280;40450;55.848;-3.572;2023-04-25T07:36:39;99752.94;;;-0.83;77.28
54554;BME280;40450;55.848;-3.572;2023-04-25T07:39:10;99753.90;;;-0.73;77.12
54554;BME280;40450;55.848;-3.572;2023-04-25T07:41:40;99753.67;;;-0.57;74.70
54554;BME280;40450;55.848;-3.572;2023-04-25T07:44:11;99760.14;;;-1.74;75.80
54554;BME280;40450;55.848;-3.572;2023-04-25T07:46:41;99756.17;;;-0.78;74.75
54554;BME280;40450;55.848;-3.572;2023-04-25T07:49:11;99762.56;;;0.58;72.19
54554;BME280;40450;55.848;-3.572;2023-04-25T07:51:42;99768.78;;;-1.69;75.67
54554;BME280;40450;55.848;-3.572;2023-04-25T07:54:14;99772.55;;;-3.08;81.99
54554;BME280;40450;55.848;-3.572;2023-04-25T07:56:43;99770.74;;;-2.00;79.31
54554;BME280;40450;55.848;-3.572;2023-04-25T07:59:13;99770.27;;;0.18;74.66
54554;BME280;40450;55.848;-3.572;2023-04-25T08:01:44;99766.74;;;1.63;69.14
54554;BME280;40450;55.848;-3.572;2023-04-25T08:04:14;99778.73;;;-3.24;80.19
54554;BME280;40450;55.848;-3.572;2023-04-25T08:06:45;99782.41;;;-1.91;75.53
54554;BME280;40450;55.848;-3.572;2023-04-25T08:09:15;99779.59;;;-1.42;73.53
54554;BME280;40450;55.848;-3.572;2023-04-25T08:11:46;99788.05;;;-4.11;78.61
54554;BME280;40450;55.848;-3.572;2023-04-25T08:14:16;99798.72;;;-5.47;79.69
54554;BME280;40450;55.848;-3.572;2023-04-25T08:16:47;99795.26;;;-5.69;80.79
54554;BME280;40450;55.848;-3.572;2023-04-25T08:19:17;99787.95;;;-3.46;78.80
54554;BME280;40450;55.848;-3.572;2023-04-25T08:21:47;99789.05;;;-2.82;76.73
54554;BME280;40450;55.848;-3.572;2023-04-25T08:24:18;99790.93;;;-3.88;78.53
54554;BME280;40450;55.848;-3.572;2023-04-25T08:26:49;99795.79;;;-6.17;82.90
54554;BME280;40450;55.848;-3.572;2023-04-25T08:29:19;99802.67;;;-5.75;82.56
54554;BME280;40450;55.848;-3.572;2023-04-25T08:31:49;99801.24;;;-4.69;80.70
54554;BME280;40450;55.848;-3.572;2023-04-25T08:34:20;99800.76;;;-4.12;80.18
54554;BME280;40450;55.848;-3.572;2023-04-25T08:36:50;99800.44;;;-4.63;81.58
54554;BME280;40450;55.848;-3.572;2023-04-25T08:39:21;99794.10;;;-4.02;80.81
54554;BME280;40450;55.848;-3.572;2023-04-25T08:41:51;99790.57;;;-4.41;81.90
54554;BME280;40450;55.848;-3.572;2023-04-25T08:44:22;99792.02;;;-5.53;82.55
54554;BME280;40450;55.848;-3.572;2023-04-25T08:46:53;99792.27;;;-4.22;81.22
54554;BME280;40450;55.848;-3.572;2023-04-25T08:49:23;99799.70;;;-6.06;81.45
54554;BME280;40450;55.848;-3.572;2023-04-25T08:51:56;99798.93;;;-4.80;80.16
54554;BME280;40450;55.848;-3.572;2023-04-25T08:54:27;99801.29;;;-5.91;82.35
54554;BME280;40450;55.848;-3.572;2023-04-25T08:56:55;99802.65;;;-4.71;80.48
54554;BME280;40450;55.848;-3.572;2023-04-25T08:59:25;99788.67;;;-4.06;77.01
54554;BME280;40450;55.848;-3.572;2023-04-25T09:01:55;99792.87;;;-3.94;76.78
54554;BME280;40450;55.848;-3.572;2023-04-25T09:04:26;99796.70;;;-5.49;79.46
54554;BME280;40450;55.848;-3.572;2023-04-25T09:06:56;99802.57;;;-5.66;81.04
54554;BME280;40450;55.848;-3.572;2023-04-25T09:09:27;99797.89;;;-4.41;78.08
54554;BME280;40450;55.848;-3.572;2023-04-25T09:11:57;99806.95;;;-4.83;77.06
54554;BME280;40450;55.848;-3.572;2023-04-25T09:14:28;99796.83;;;-2.97;74.23
54554;BME280;40450;55.848;-3.572;2023-04-25T09:17:01;99799.57;;;-4.15;76.06
54554;BME280;40450;55.848;-3.572;2023-04-25T09:19:30;99797.60;;;-2.75;73.25
54554;BME280;40450;55.848;-3.572;2023-04-25T09:22:01;99811.80;;;-4.62;77.25
54554;BME280;40450;55.848;-3.572;2023-04-25T09:24:33;99807.46;;;-4.65;78.19
54554;BME280;40450;55.848;-3.572;2023-04-25T09:27:03;99798.87;;;-2.50;73.13
54554;BME280;40450;55.848;-3.572;2023-04-25T09:29:32;99798.69;;;-2.81;73.04
54554;BME280;40450;55.848;-3.572;2023-04-25T09:34:39;99802.11;;;-4.06;77.83
54554;BME280;40450;55.848;-3.572;2023-04-25T09:37:02;99799.93;;;-4.03;77.83
54554;BME280;40450;55.848;-3.572;2023-04-25T09:39:33;99803.21;;;-4.38;76.20
54554;BME280;40450;55.848;-3.572;2023-04-25T09:42:04;99799.88;;;-4.30;76.90
54554;BME280;40450;55.848;-3.572;2023-04-25T09:44:35;99798.60;;;-3.67;75.06
54554;BME280;40450;55.848;-3.572;2023-04-25T09:47:09;99797.93;;;-1.78;70.13
54554;BME280;40450;55.848;-3.572;2023-04-25T09:49:39;99793.22;;;-0.64;69.66
54554;BME280;40450;55.848;-3.572;2023-04-25T09:52:05;99802.75;;;-1.35;67.62
54554;BME280;40450;55.848;-3.572;2023-04-25T09:54:35;99799.77;;;-4.66;76.26
54554;BME280;40450;55.848;-3.572;2023-04-25T09:57:10;99798.96;;;-3.89;76.32
54554;BME280;40450;55.848;-3.572;2023-04-25T09:59:39;99801.64;;;-4.11;73.75
54554;BME280;40450;55.848;-3.572;2023-04-25T10:02:08;99795.01;;;-1.02;69.50
54554;BME280;40450;55.848;-3.572;2023-04-25T10:04:38;99785.82;;;2.32;67.64
54554;BME280;40450;55.848;-3.572;2023-04-25T10:07:09;99792.46;;;-0.31;67.69
54554;BME280;40450;55.848;-3.572;2023-04-25T10:09:39;99792.31;;;2.15;64.27
54554;BME280;40450;55.848;-3.572;2023-04-25T10:12:09;99795.36;;;-0.23;68.82
54554;BME280;40450;55.848;-3.572;2023-04-25T10:14:39;99792.71;;;3.00;62.15
54554;BME280;40450;55.848;-3.572;2023-04-25T10:17:11;99801.59;;;0.76;63.85
54554;BME280;40450;55.848;-3.572;2023-04-25T10:19:40;99804.86;;;-2.02;69.65
54554;BME280;40450;55.848;-3.572;2023-04-25T10:22:14;99806.31;;;-2.05;71.42
54554;BME280;40450;55.848;-3.572;2023-04-25T10:24:42;99799.36;;;-0.02;67.39
54554;BME280;40450;55.848;-3.572;2023-04-25T10:27:12;99803.41;;;-1.72;70.21
54554;BME280;40450;55.848;-3.572;2023-04-25T10:29:42;99789.48;;;2.77;61.99
54554;BME280;40450;55.848;-3.572;2023-04-25T10:32:13;99791.43;;;2.04;58.11
54554;BME280;40450;55.848;-3.572;2023-04-25T10:34:44;99782.30;;;5.46;59.33
54554;BME280;40450;55.848;-3.572;2023-04-25T10:37:14;99783.05;;;2.30;58.50
54554;BME280;40450;55.848;-3.572;2023-04-25T10:39:44;99793.51;;;-0.42;66.17
54554;BME280;40450;55.848;-3.572;2023-04-25T10:42:14;99788.70;;;0.11;66.25
54554;BME280;40450;55.848;-3.572;2023-04-25T10:47:20;99778.02;;;5.45;57.04
54554;BME280;40450;55.848;-3.572;2023-04-25T10:49:51;99776.80;;;4.02;56.08
54554;BME280;40450;55.848;-3.572;2023-04-25T10:52:18;99775.27;;;1.86;59.54
54554;BME280;40450;55.848;-3.572;2023-04-25T10:54:47;99780.25;;;-0.92;66.72
54554;BME280;40450;55.848;-3.572;2023-04-25T10:59:47;99776.72;;;0.93;63.24
54554;BME280;40450;55.848;-3.572;2023-04-25T11:02:18;99774.11;;;1.52;60.83
54554;BME280;40450;55.848;-3.572;2023-04-25T11:04:48;99764.56;;;4.80;58.10
54554;BME280;40450;55.848;-3.572;2023-04-25T11:07:28;99763.89;;;5.92;53.62
54554;BME280;40450;55.848;-3.572;2023-04-25T11:09:49;99757.63;;;7.40;51.90
54554;BME280;40450;55.848;-3.572;2023-04-25T11:12:20;99763.93;;;6.01;54.80
54554;BME280;40450;55.848;-3.572;2023-04-25T11:14:50;99762.74;;;6.47;49.54
54554;BME280;40450;55.848;-3.572;2023-04-25T11:17:21;99767.58;;;5.75;51.77
54554;BME280;40450;55.848;-3.572;2023-04-25T11:19:51;99778.99;;;0.57;63.19
54554;BME280;40450;55.848;-3.572;2023-04-25T11:22:22;99775.98;;;0.63;64.81
54554;BME280;40450;55.848;-3.572;2023-04-25T11:24:52;99771.55;;;-0.66;66.95
54554;BME280;40450;55.848;-3.572;2023-04-25T11:27:22;99775.42;;;-0.83;67.67
54554;BME280;40450;55.848;-3.572;2023-04-25T11:29:53;99783.48;;;-1.88;66.32
54554;BME280;40450;55.848;-3.572;2023-04-25T11:32:23;99777.82;;;0.54;64.34
54554;BME280;40450;55.848;-3.572;2023-04-25T11:34:54;99777.02;;;0.71;61.69
54554;BME280;40450;55.848;-3.572;2023-04-25T11:37:24;99779.86;;;0.29;63.74
54554;BME280;40450;55.848;-3.572;2023-04-25T11:39:54;99774.64;;;1.51;61.87
54554;BME280;40450;55.848;-3.572;2023-04-25T11:42:25;99766.83;;;3.59;59.32
54554;BME280;40450;55.848;-3.572;2023-04-25T11:44:55;99759.46;;;6.25;55.20
54554;BME280;40450;55.848;-3.572;2023-04-25T11:47:29;99762.33;;;5.20;53.46
54554;BME280;40450;55.848;-3.572;2023-04-25T11:49:58;99758.89;;;7.66;47.27
54554;BME280;40450;55.848;-3.572;2023-04-25T11:52:35;99763.85;;;5.95;47.68
54554;BME280;40450;55.848;-3.572;2023-04-25T11:54:57;99766.42;;;2.14;58.80
54554;BME280;40450;55.848;-3.572;2023-04-25T11:57:31;99762.17;;;4.19;55.22
54554;BME280;40450;55.848;-3.572;2023-04-25T12:00:07;99763.71;;;3.44;56.52
54554;BME280;40450;55.848;-3.572;2023-04-25T12:02:28;99770.00;;;1.25;60.49
54554;BME280;40450;55.848;-3.572;2023-04-25T12:04:59;99772.60;;;-0.13;63.84
54554;BME280;40450;55.848;-3.572;2023-04-25T12:07:29;99772.45;;;0.39;61.43
54554;BME280;40450;55.848;-3.572;2023-04-25T12:10:03;99762.02;;;4.16;58.59
54554;BME280;40450;55.848;-3.572;2023-04-25T12:12:33;99761.95;;;6.16;56.30
54554;BME280;40450;55.848;-3.572;2023-04-25T12:15:09;99758.40;;;7.10;47.52
54554;BME280;40450;55.848;-3.572;2023-04-25T12:17:31;99759.87;;;8.51;44.95
54554;BME280;40450;55.848;-3.572;2023-04-25T12:20:07;99762.25;;;2.49;54.60
54554;BME280;40450;55.848;-3.572;2023-04-25T12:22:32;99763.66;;;2.99;55.80
54554;BME280;40450;55.848;-3.572;2023-04-25T12:25:02;99761.67;;;5.09;52.48
54554;BME280;40450;55.848;-3.572;2023-04-25T12:27:33;99760.23;;;4.64;51.60
54554;BME280;40450;55.848;-3.572;2023-04-25T12:30:04;99761.22;;;6.07;49.46
54554;BME280;40450;55.848;-3.572;2023-04-25T12:32:33;99756.77;;;5.90;47.12
54554;BME280;40450;55.848;-3.572;2023-04-25T12:35:05;99746.52;;;7.53;44.60
54554;BME280;40450;55.848;-3.572;2023-04-25T12:37:34;99749.67;;;6.70;47.07
54554;BME280;40450;55.848;-3.572;2023-04-25T12:40:06;99749.89;;;6.06;49.98
54554;BME280;40450;55.848;-3.572;2023-04-25T12:42:35;99747.44;;;4.03;55.84
54554;BME280;40450;55.848;-3.572;2023-04-25T12:45:07;99752.51;;;2.89;58.47
54554;BME280;40450;55.848;-3.572;2023-04-25T12:47:36;99749.25;;;2.51;57.95
54554;BME280;40450;55.848;-3.572;2023-04-25T12:50:07;99749.60;;;2.51;59.47
54554;BME280;40450;55.848;-3.572;2023-04-25T12:52:37;99742.53;;;3.93;57.65
54554;BME280;40450;55.848;-3.572;2023-04-25T12:55:07;99749.60;;;3.35;57.89
54554;BME280;40450;55.848;-3.572;2023-04-25T12:57:38;99752.42;;;3.61;57.47
54554;BME280;40450;55.848;-3.572;2023-04-25T13:00:09;99747.13;;;4.96;54.18
54554;BME280;40450;55.848;-3.572;2023-04-25T13:02:38;99751.14;;;3.96;54.43
54554;BME280;40450;55.848;-3.572;2023-04-25T13:05:09;99752.93;;;2.24;57.90
54554;BME280;40450;55.848;-3.572;2023-04-25T13:07:39;99750.77;;;5.55;50.31
54554;BME280;40450;55.848;-3.572;2023-04-25T13:10:10;99749.78;;;4.50;51.89
54554;BME280;40450;55.848;-3.572;2023-04-25T13:12:40;99754.95;;;4.08;52.61
54554;BME280;40450;55.848;-3.572;2023-04-25T13:15:11;99748.70;;;3.70;53.74
54554;BME280;40450;55.848;-3.572;2023-04-25T13:17:41;99739.69;;;5.01;51.77
54554;BME280;40450;55.848;-3.572;2023-04-25T13:20:11;99730.12;;;7.25;48.75